Airport ID:KJWN
Update Time (UTC):21/07/2019 13:57
Wind Speed (Knots):7
Wind Direction (Magnetic):220
Temperature (°C):26
Dew Point (°C):23
Humidity (%):85
Altimeter (inHg):30.01
Density Altitude (Feet):2100
Visibility (Miles):10+
Clouds (Hundreds of feet):OVC011
Present Weather:
METAR:METAR KJWN 211355Z AUTO 22009KT 10SM OVC011 25/23 A3001 RMK A01

The data displayed is for advisory purposes only and is not to be used for flight planning or operations.

This page is not automatically refreshed. Reload the page to see current data.